• Join FlightAware (Why Join?)
  • Login
  • US Flag 
07:42AM EST


 

Airport Tracker/Info


-or-


 

Live Flight TrackerFlight Track Log ✈ UAL582 ✈ 29-Jun-2013 ✈ KORD - KTPA

Flight Track Log - Related Links

Times and Time Zones

All times are in EDT time to prevent confusion due to time zone crossing. See the UAL582 flight status page for this flight to view local times or setup timezone preferences in your user account.

Time Position Orientation Groundspeed Altitude Reporting Facility
EDT Latitude Longitude Course Direction KTS MPH feet Rate Location/Type
09:55PM 41.9775 -87.8514 180° South 210 242 2,600  Level Chicago Center
09:56PM 41.9064 -87.8456 177° South 258 297 4,700 2,580 Climbing Chicago Center
09:57PM 41.6564 -87.7563 180° South  Level Estimated
09:57PM 41.8239 -87.8514 183° South 290 334 8,000  Level Chicago Center
09:58PM 41.5479 -87.7066 176° South  Level Estimated
09:58PM 41.7228 -87.8572 182° South 304 350 11,600  Level Chicago Center
09:59PM 41.4394 -87.6570 187° South  Level Estimated
09:59PM 41.6347 -87.8444 174° South 316 364 14,300  Level Chicago Center
10:00PM 41.3309 -87.6075 180° South  Level Estimated
10:00PM 41.5444 -87.8233 170° South 327 376 16,800  Level Chicago Center
10:01PM 41.4433 -87.8006 170° South 364 419 17,400 1,020 Climbing Chicago Center
10:02PM 41.3278 -87.7750 171° South 412 474 19,000 1,560 Climbing Chicago Center
10:03PM 41.2081 -87.7472 170° South 430 495 20,700 1,620 Climbing Chicago Center
10:04PM 41.0861 -87.7189 170° South 440 506 22,300 1,500 Climbing Chicago Center
10:05PM 40.9614 -87.6903 170° South 452 520 23,800 1,320 Climbing Chicago Center
10:07PM 40.8347 -87.6631 171° South 460 529 25,100 1,320 Climbing Chicago Center
10:08PM 40.6817 -87.6278 170° South 467 537 26,600 1,200 Climbing Chicago Center
10:09PM 40.5525 -87.5997 171° South 471 542 27,600 1,080 Climbing Chicago Center
10:10PM 40.4208 -87.5700 170° South 479 551 28,800 1,260 Climbing Chicago Center
10:11PM 40.2908 -87.5417 171° South 478 550 30,200 1,320 Climbing Chicago Center
10:12PM 40.1556 -87.5131 171° South 473 544 31,600 1,200 Climbing Chicago Center
10:12PM 40.0525 -87.4908 171° South 466 536 32,500 1,800 Climbing Indianapolis Center
10:13PM 39.9289 -87.4650 171° South 458 527 35,000 1,620 Climbing Indianapolis Center
10:14PM 39.8125 -87.4403 171° South 437 503 35,900 780 Climbing Indianapolis Center
10:15PM 39.6953 -87.4139 170° South 430 495 36,700 540 Climbing Indianapolis Center
10:16PM 39.5786 -87.3892 171° South 429 494 37,000 120 Climbing Indianapolis Center
10:18PM 39.4575 -87.3631 171° South 439 505 37,000  Level Indianapolis Center
10:19PM 39.3317 -87.3367 171° South 454 522 37,000  Level Indianapolis Center
10:20PM 39.2067 -87.3100 171° South 456 525 37,000 -60 Level Indianapolis Center
10:21PM 39.0761 -87.2828 171° South 448 516 36,900  Descending Indianapolis Center
10:22PM 38.9558 -87.2564 170° South 439 505 37,000  Climbing Indianapolis Center
10:23PM 38.8347 -87.2314 171° South 439 505 36,900  Descending Indianapolis Center
10:24PM 38.7131 -87.2050 170° South 440 506 37,000  Climbing Indianapolis Center
10:25PM 38.5897 -87.1800 171° South 446 513 37,000  Level Indianapolis Center
10:26PM 38.4669 -87.1539 171° South 448 516 37,000  Level Indianapolis Center
10:27PM 38.3314 -87.1242 170° South 450 518 37,100  Climbing Indianapolis Center
10:28PM 38.2092 -87.0997 171° South 447 514 37,000 -60 Descending Indianapolis Center
10:29PM 38.0817 -87.0744 171° South 447 514 37,000  Level Indianapolis Center
10:30PM 37.9594 -87.0486 171° South 445 512 37,000  Level Indianapolis Center
10:31PM 37.8358 -87.0236 171° South 448 516 37,000  Level Indianapolis Center
10:32PM 37.7131 -86.9969 170° South 445 512 37,000  Level Indianapolis Center
10:33PM 37.5914 -86.9733 171° South 442 509 37,000  Level Indianapolis Center
10:34PM 37.4667 -86.9503 172° South 439 505 37,000  Level Indianapolis Center
10:35PM 37.3458 -86.9261 171° South 436 502 37,000  Level Indianapolis Center
10:36PM 37.2269 -86.9014 171° South 430 495 37,000  Level Indianapolis Center
10:37PM 37.1100 -86.8775 171° South 423 487 37,000  Level Indianapolis Center
10:38PM 36.9942 -86.8533 171° South 419 482 37,000  Level Indianapolis Center
10:39PM 36.8781 -86.8308 171° South 420 483 37,000  Level Indianapolis Center
10:40PM 36.7617 -86.8078 171° South 420 483 37,000  Level Indianapolis Center
10:41PM 36.6303 -86.7811 171° South 425 489 37,000  Level Memphis Center
10:42PM 36.5022 -86.7531 170° South 425 489 37,000  Level Memphis Center
10:43PM 36.3847 -86.7300 171° South 430 495 37,000  Level Memphis Center
10:44PM 36.2653 -86.7044 170° South 435 501 37,000  Level Memphis Center
10:45PM 36.1500 -86.6839 172° South 429 494 37,000  Level Memphis Center
10:46PM 36.0489 -86.6447 163° South 424 488 37,000  Level Memphis Center
10:48PM 35.8244 -86.5306 158° South 441 507 37,000  Level Atlanta Center
10:49PM 35.7089 -86.4736 158° South 434 499 37,000  Level Atlanta Center
10:50PM 35.5994 -86.4192 158° South 434 499 37,000  Level Atlanta Center
10:51PM 35.4878 -86.3650 158° South 434 499 37,000  Level Atlanta Center
10:52PM 35.3739 -86.3108 159° South 434 499 37,000  Level Atlanta Center
10:53PM 35.2747 -86.2622 158° South 434 499 37,000  Level Atlanta Center
10:54PM 35.1569 -86.1981 156° South 434 499 37,000  Level Atlanta Center
10:55PM 35.0389 -86.1469 160° South 429 494 37,000  Level Atlanta Center
10:56PM 34.9250 -86.0933 159° South 434 499 37,000  Level Atlanta Center
10:57PM 34.8133 -86.0322 156° South 434 499 37,000  Level Atlanta Center
10:58PM 34.6953 -85.9764 159° South 441 507 37,000  Level Atlanta Center
10:59PM 34.5792 -85.9208 158° South 452 520 37,000  Level Atlanta Center
11:00PM 34.4633 -85.8653 158° South 452 520 37,000  Level Atlanta Center
11:01PM 34.3719 -85.8206 158° South 452 520 37,000  Level Atlanta Center
11:02PM 34.2475 -85.7678 161° South 442 509 37,000  Level Atlanta Center
11:03PM 34.1356 -85.7153 159° South 437 503 37,000  Level Atlanta Center
11:04PM 34.0236 -85.6631 159° South 437 503 37,000  Level Atlanta Center
11:05PM 33.9094 -85.6083 158° South 437 503 37,000  Level Atlanta Center
11:06PM 33.7850 -85.5508 159° South 432 497 37,000  Level Atlanta Center
11:07PM 33.6708 -85.4989 159° South 432 497 37,000  Level Atlanta Center
11:08PM 33.5567 -85.4447 158° South 437 503 37,000  Level Atlanta Center
11:09PM 33.4425 -85.3906 158° South 437 503 37,000  Level Atlanta Center
11:10PM 33.3219 -85.3389 160° South 449 517 37,000  Level Atlanta Center
11:11PM 33.2078 -85.2853 159° South 447 514 37,000  Level Atlanta Center
11:12PM 33.0914 -85.2289 158° South 447 514 37,000  Level Atlanta Center
11:13PM 32.9750 -85.1778 160° South 447 514 37,000  Level Atlanta Center
11:14PM 32.8542 -85.1442 167° South 447 514 37,000  Level Atlanta Center
11:15PM 32.7356 -85.0958 161° South 441 507 37,000  Level Atlanta Center
11:16PM 32.6128 -85.0547 164° South 441 507 37,000  Level Atlanta Center
11:17PM 32.4964 -85.0142 164° South 447 514 37,000  Level Atlanta Center
11:18PM 32.3775 -84.9758 165° South 447 514 37,000  Level Atlanta Center
11:19PM 32.2819 -84.9431 164° South 447 514 37,000  Level Atlanta Center
11:21PM 32.0428 -84.8631 164° South 453 521 37,000  Level Jacksonville Center
11:22PM 31.9139 -84.8236 165° South 446 513 37,000  Level Jacksonville Center
11:23PM 31.7933 -84.7844 165° South 441 507 37,000  Level Jacksonville Center
11:24PM 31.6769 -84.7456 164° South 441 507 37,000  Level Jacksonville Center
11:25PM 31.5586 -84.7067 164° South 441 507 37,000  Level Jacksonville Center
11:26PM 31.4425 -84.6483 157° South 441 507 37,000  Level Jacksonville Center
11:27PM 31.3283 -84.5853 155° Southeast 446 513 37,000  Level Jacksonville Center
11:28PM 31.2164 -84.5225 154° Southeast 452 520 37,000  Level Jacksonville Center
11:29PM 31.1108 -84.4650 155° Southeast 461 531 37,000  Level Jacksonville Center
11:30PM 30.9989 -84.4000 154° Southeast 456 525 37,000  Level Jacksonville Center
11:31PM 30.8825 -84.3353 154° Southeast 456 525 37,000  Level Jacksonville Center
11:32PM 30.7686 -84.2706 154° Southeast 461 531 37,000  Level Jacksonville Center
11:33PM 30.6544 -84.2111 156° South 461 531 37,000 -60 Level Jacksonville Center
11:34PM 30.5444 -84.1444 152° Southeast 461 531 36,900 -60 Descending Jacksonville Center
11:35PM 30.4300 -84.0850 156° South 455 524 36,900  Level Jacksonville Center
11:36PM 30.3158 -84.0236 155° Southeast 455 524 37,000  Climbing Jacksonville Center
11:37PM 30.2014 -83.9597 154° Southeast 455 524 37,000  Level Jacksonville Center
11:38PM 30.0892 -83.8983 155° Southeast 460 529 37,000 -360 Level Jacksonville Center
11:39PM 29.9728 -83.8372 156° South 460 529 36,400 -840 Descending Jacksonville Center
11:40PM 29.8564 -83.7764 156° South 460 529 35,400 -960 Descending Jacksonville Center
11:41PM 29.7442 -83.7106 153° Southeast 460 529 34,500 -960 Descending Jacksonville Center
11:42PM 29.6297 -83.6525 156° South 460 529 33,500 -1,500 Descending Jacksonville Center
11:43PM 29.5131 -83.5894 155° Southeast 460 529 31,600 -2,040 Descending Jacksonville Center
11:44PM 29.3944 -83.5242 154° Southeast 460 529 29,500 -2,400 Descending Jacksonville Center
11:45PM 29.2611 -83.4519 155° Southeast 477 549 26,800 -2,040 Descending Jacksonville Center
11:46PM 29.1508 -83.3919 155° Southeast 465 535 25,500 -1,200 Descending Jacksonville Center
11:47PM 29.0528 -83.3392 155° Southeast 426 490 24,400 -1,500 Descending Jacksonville Center
11:48PM 28.9569 -83.2889 155° Southeast 394 453 22,500 -1,980 Descending Jacksonville Center
11:49PM 28.8653 -83.2386 154° Southeast 375 432 20,500 -1,800 Descending Jacksonville Center
11:50PM 28.7756 -83.1933 156° South 365 420 19,000 -1,560 Descending Jacksonville Center
11:51PM 28.6881 -83.1481 156° South 358 412 17,400 -1,500 Descending Jacksonville Center
11:52PM 28.5833 -83.1000 158° South 339 390 15,800 -1,380 Descending Tampa TRACON
11:53PM 28.5000 -83.0500 152° Southeast 333 383 14,400 -1,500 Descending Tampa TRACON
11:54PM 28.4167 -83.0000 152° Southeast 328 377 12,900 -1,440 Descending Tampa TRACON
11:55PM 28.3500 -82.9667 156° South 322 371 11,700 -1,440 Descending Tampa TRACON
11:56PM 28.2833 -82.9000 139° Southeast 312 359 10,200 -1,500 Descending Tampa TRACON
11:57PM 28.2833 -82.8167 90° East 306 352 8,700 -1,560 Descending Tampa TRACON
11:58PM 28.2667 -82.7333 103° East 294 338 7,300 -1,500 Descending Tampa TRACON
11:59PM 28.2333 -82.6333 111° Southeast 288 331 5,800 -1,500 Descending Tampa TRACON
12:00AM 28.2000 -82.5667 120° Southeast 256 295 4,200 -1,440 Descending Tampa TRACON
12:01AM 28.1500 -82.5333 150° Southeast 214 246 3,000 -1,020 Descending Tampa TRACON
12:02AM 28.1000 -82.5333 180° South 176 203 2,300 -840 Descending Tampa TRACON
12:03AM 28.0667 -82.5333 180° South 147 169 1,500 -840 Descending Tampa TRACON